AXY735 SBRJ-SBJH
Flight info
| Callsign | AXY735 |
|---|---|
| Flight time | 0h 55m |
| Altitude | 40000 |
| Route | NAXOP UZ45 IBDAL |
| Aircraft | C750/M-SBDE3FGHRWXY/S |
Departure
| Time | 2026-05-06 13:44 |
|---|---|
| Airport | Santos Dumont Airport (SBRJ) |
Arrival
| Time | 2026-05-06 14:39 |
|---|---|
| Airport | São Paulo Catarina Executive Airport (SBJH) |
| Time | Latitude | Longitude | Altitude | Speed | Heading |
|---|---|---|---|---|---|
| 2026-05-06 13:34 | -22.91432 | -43.16541 | 19 ft | 0 kts | 225° |
| 2026-05-06 13:40 | -22.91426 | -43.16550 | 19 ft | 2 kts | 343° |
| 2026-05-06 13:41 | -22.91411 | -43.16516 | 19 ft | 7 kts | 75° |
| 2026-05-06 13:41 | -22.91431 | -43.16478 | 20 ft | 6 kts | 148° |
| 2026-05-06 13:41 | -22.91457 | -43.16454 | 18 ft | 5 kts | 137° |
| 2026-05-06 13:41 | -22.91480 | -43.16430 | 18 ft | 5 kts | 133° |
| 2026-05-06 13:42 | -22.91504 | -43.16399 | 19 ft | 6 kts | 128° |
| 2026-05-06 13:42 | -22.91533 | -43.16362 | 18 ft | 7 kts | 134° |
| 2026-05-06 13:42 | -22.91570 | -43.16325 | 17 ft | 7 kts | 138° |
| 2026-05-06 13:42 | -22.91614 | -43.16287 | 17 ft | 12 kts | 146° |
| 2026-05-06 13:43 | -22.91634 | -43.16241 | 17 ft | 4 kts | 8° |
| 2026-05-06 13:43 | -22.91631 | -43.16242 | 17 ft | 2 kts | 352° |
| 2026-05-06 13:43 | -22.91284 | -43.16268 | 17 ft | 112 kts | 356° |
| 2026-05-06 13:43 | -22.90336 | -43.16328 | 428 ft | 145 kts | 356° |
| 2026-05-06 13:44 | -22.89235 | -43.16330 | 914 ft | 173 kts | 9° |
| 2026-05-06 13:44 | -22.88067 | -43.15706 | 1273 ft | 205 kts | 39° |
| 2026-05-06 13:44 | -22.87298 | -43.14339 | 1903 ft | 218 kts | 74° |
| 2026-05-06 13:44 | -22.87290 | -43.12719 | 2915 ft | 216 kts | 98° |
| 2026-05-06 13:45 | -22.87548 | -43.11119 | 3895 ft | 215 kts | 99° |
| 2026-05-06 13:45 | -22.88023 | -43.07904 | 5707 ft | 218 kts | 98° |
| 2026-05-06 13:45 | -22.88299 | -43.06273 | 6514 ft | 223 kts | 104° |
| 2026-05-06 13:46 | -22.89213 | -43.04787 | 6717 ft | 260 kts | 138° |
| 2026-05-06 13:46 | -22.90955 | -43.03997 | 7361 ft | 278 kts | 166° |
| 2026-05-06 13:46 | -22.92848 | -43.03763 | 8240 ft | 281 kts | 179° |
| 2026-05-06 13:46 | -22.94743 | -43.04372 | 8054 ft | 289 kts | 209° |
| 2026-05-06 13:47 | -22.96312 | -43.05715 | 8022 ft | 289 kts | 219° |
| 2026-05-06 13:47 | -22.97830 | -43.07159 | 8015 ft | 289 kts | 219° |
| 2026-05-06 13:47 | -22.99386 | -43.08559 | 8009 ft | 290 kts | 218° |
| 2026-05-06 13:47 | -23.00955 | -43.09933 | 8010 ft | 290 kts | 218° |
| 2026-05-06 13:48 | -23.02519 | -43.11329 | 8003 ft | 290 kts | 218° |
| 2026-05-06 13:48 | -23.04055 | -43.12713 | 8002 ft | 291 kts | 218° |
| 2026-05-06 13:48 | -23.05615 | -43.14110 | 8000 ft | 290 kts | 218° |
| 2026-05-06 13:48 | -23.07176 | -43.15504 | 8014 ft | 296 kts | 218° |
| 2026-05-06 13:49 | -23.08800 | -43.16916 | 9125 ft | 290 kts | 217° |
| 2026-05-06 13:49 | -23.10379 | -43.18279 | 10302 ft | 295 kts | 217° |
| 2026-05-06 13:49 | -23.12046 | -43.19727 | 10687 ft | 320 kts | 218° |
| 2026-05-06 13:49 | -23.13854 | -43.21306 | 10904 ft | 347 kts | 218° |
| 2026-05-06 13:50 | -23.15798 | -43.23001 | 11281 ft | 364 kts | 217° |
| 2026-05-06 13:50 | -23.17783 | -43.24732 | 12089 ft | 367 kts | 218° |
| 2026-05-06 13:50 | -23.19789 | -43.26482 | 12864 ft | 372 kts | 218° |
| 2026-05-06 13:50 | -23.21815 | -43.28249 | 13647 ft | 375 kts | 218° |
| 2026-05-06 13:51 | -23.23873 | -43.30045 | 14292 ft | 381 kts | 218° |
| 2026-05-06 13:51 | -23.25947 | -43.31856 | 15018 ft | 383 kts | 218° |
| 2026-05-06 13:51 | -23.28023 | -43.33669 | 15812 ft | 383 kts | 218° |
| 2026-05-06 13:51 | -23.30101 | -43.35484 | 16590 ft | 384 kts | 218° |
| 2026-05-06 13:52 | -23.32109 | -43.37352 | 17323 ft | 386 kts | 225° |
| 2026-05-06 13:52 | -23.33621 | -43.39815 | 18186 ft | 386 kts | 242° |
| 2026-05-06 13:52 | -23.34583 | -43.42552 | 18886 ft | 392 kts | 253° |
| 2026-05-06 13:52 | -23.35192 | -43.45414 | 19513 ft | 396 kts | 256° |
| 2026-05-06 13:53 | -23.35846 | -43.48338 | 20220 ft | 399 kts | 254° |
| 2026-05-06 13:53 | -23.36567 | -43.51258 | 20949 ft | 402 kts | 253° |
| 2026-05-06 13:53 | -23.37282 | -43.54221 | 21664 ft | 406 kts | 255° |
| 2026-05-06 13:53 | -23.37965 | -43.57213 | 22345 ft | 410 kts | 255° |
| 2026-05-06 13:54 | -23.38659 | -43.60240 | 23052 ft | 413 kts | 255° |
| 2026-05-06 13:54 | -23.39380 | -43.63289 | 23764 ft | 417 kts | 255° |
| 2026-05-06 13:54 | -23.40107 | -43.66367 | 24331 ft | 421 kts | 255° |
| 2026-05-06 13:54 | -23.40828 | -43.69472 | 24958 ft | 424 kts | 255° |
| 2026-05-06 13:55 | -23.41548 | -43.72587 | 25586 ft | 426 kts | 255° |
| 2026-05-06 13:55 | -23.42280 | -43.75723 | 26197 ft | 428 kts | 255° |
| 2026-05-06 13:55 | -23.43016 | -43.78875 | 26804 ft | 431 kts | 255° |
| 2026-05-06 13:55 | -23.43754 | -43.82056 | 27407 ft | 434 kts | 255° |
| 2026-05-06 13:56 | -23.44484 | -43.85208 | 27993 ft | 436 kts | 255° |
| 2026-05-06 13:56 | -23.45228 | -43.88415 | 28593 ft | 439 kts | 254° |
| 2026-05-06 13:56 | -23.45979 | -43.91653 | 29167 ft | 442 kts | 254° |
| 2026-05-06 13:56 | -23.46733 | -43.94913 | 29725 ft | 444 kts | 254° |
| 2026-05-06 13:57 | -23.47491 | -43.98193 | 30273 ft | 447 kts | 254° |
| 2026-05-06 13:57 | -23.48251 | -44.01486 | 30721 ft | 450 kts | 254° |
| 2026-05-06 13:57 | -23.49015 | -44.04799 | 31153 ft | 453 kts | 253° |
| 2026-05-06 13:57 | -23.49779 | -44.08116 | 31812 ft | 450 kts | 253° |
| 2026-05-06 13:58 | -23.50536 | -44.11408 | 32496 ft | 447 kts | 253° |
| 2026-05-06 13:58 | -23.51290 | -44.14683 | 33151 ft | 445 kts | 253° |
| 2026-05-06 13:58 | -23.52044 | -44.17965 | 33825 ft | 443 kts | 252° |
| 2026-05-06 13:58 | -23.52780 | -44.21167 | 34452 ft | 441 kts | 252° |
| 2026-05-06 13:59 | -23.53522 | -44.24403 | 35092 ft | 437 kts | 252° |
| 2026-05-06 13:59 | -23.54252 | -44.27591 | 35861 ft | 431 kts | 251° |
| 2026-05-06 13:59 | -23.54983 | -44.30776 | 36002 ft | 439 kts | 251° |
| 2026-05-06 13:59 | -23.55733 | -44.34028 | 35994 ft | 449 kts | 251° |
| 2026-05-06 14:00 | -23.56498 | -44.37377 | 35987 ft | 460 kts | 251° |
| 2026-05-06 14:00 | -23.57275 | -44.40799 | 36001 ft | 469 kts | 252° |
| 2026-05-06 14:00 | -23.58864 | -44.47777 | 35864 ft | 464 kts | 252° |
| 2026-05-06 14:01 | -23.59617 | -44.51120 | 35148 ft | 445 kts | 252° |
| 2026-05-06 14:01 | -23.60352 | -44.54349 | 34356 ft | 434 kts | 252° |
| 2026-05-06 14:01 | -23.61083 | -44.57529 | 33498 ft | 433 kts | 252° |
| 2026-05-06 14:01 | -23.61817 | -44.60745 | 32582 ft | 440 kts | 253° |
| 2026-05-06 14:02 | -23.62553 | -44.64008 | 31688 ft | 446 kts | 253° |
| 2026-05-06 14:02 | -23.63044 | -44.66187 | 31117 ft | 449 kts | 253° |
| 2026-05-06 14:02 | -23.63798 | -44.69520 | 30301 ft | 455 kts | 253° |
| 2026-05-06 14:02 | -23.64565 | -44.72904 | 30002 ft | 457 kts | 254° |
| 2026-05-06 14:03 | -23.66092 | -44.79676 | 30002 ft | 462 kts | 254° |
| 2026-05-06 14:03 | -23.67629 | -44.86493 | 30001 ft | 463 kts | 254° |
| 2026-05-06 14:04 | -23.69162 | -44.93332 | 30000 ft | 463 kts | 254° |
| 2026-05-06 14:04 | -23.70686 | -45.00123 | 29998 ft | 463 kts | 254° |
| 2026-05-06 14:05 | -23.72215 | -45.06964 | 29998 ft | 463 kts | 254° |
| 2026-05-06 14:05 | -23.73743 | -45.13808 | 29997 ft | 463 kts | 254° |
| 2026-05-06 14:06 | -23.74492 | -45.17183 | 29708 ft | 451 kts | 254° |
| 2026-05-06 14:06 | -23.75229 | -45.20501 | 29183 ft | 448 kts | 254° |
| 2026-05-06 14:06 | -23.75963 | -45.23790 | 28655 ft | 444 kts | 254° |
| 2026-05-06 14:06 | -23.76687 | -45.27053 | 28143 ft | 441 kts | 254° |
| 2026-05-06 14:07 | -23.77401 | -45.30300 | 27630 ft | 439 kts | 254° |
| 2026-05-06 14:07 | -23.78111 | -45.33526 | 27121 ft | 436 kts | 255° |
| 2026-05-06 14:07 | -23.78821 | -45.36737 | 26613 ft | 434 kts | 255° |
| 2026-05-06 14:07 | -23.79523 | -45.39923 | 26109 ft | 430 kts | 255° |
| 2026-05-06 14:08 | -23.80220 | -45.43091 | 25608 ft | 428 kts | 255° |
| 2026-05-06 14:08 | -23.80914 | -45.46243 | 25106 ft | 425 kts | 255° |
| 2026-05-06 14:08 | -23.81596 | -45.49334 | 24618 ft | 423 kts | 255° |
| 2026-05-06 14:08 | -23.82280 | -45.52445 | 24125 ft | 421 kts | 255° |
| 2026-05-06 14:09 | -23.82961 | -45.55550 | 23614 ft | 419 kts | 255° |
| 2026-05-06 14:09 | -23.83637 | -45.58633 | 23106 ft | 416 kts | 255° |
| 2026-05-06 14:09 | -23.84308 | -45.61692 | 22618 ft | 413 kts | 255° |
| 2026-05-06 14:09 | -23.84974 | -45.64732 | 22135 ft | 411 kts | 255° |
| 2026-05-06 14:10 | -23.85637 | -45.67765 | 21655 ft | 409 kts | 255° |
| 2026-05-06 14:10 | -23.86298 | -45.70793 | 21174 ft | 407 kts | 255° |
| 2026-05-06 14:10 | -23.86953 | -45.73793 | 20696 ft | 405 kts | 255° |
| 2026-05-06 14:10 | -23.87604 | -45.76778 | 20230 ft | 403 kts | 255° |
| 2026-05-06 14:11 | -23.88244 | -45.79714 | 19757 ft | 401 kts | 255° |
| 2026-05-06 14:11 | -23.88888 | -45.82674 | 19291 ft | 399 kts | 255° |
| 2026-05-06 14:11 | -23.89529 | -45.85622 | 18824 ft | 397 kts | 255° |
| 2026-05-06 14:11 | -23.90167 | -45.88559 | 18343 ft | 395 kts | 255° |
| 2026-05-06 14:12 | -23.90800 | -45.91477 | 17861 ft | 393 kts | 255° |
| 2026-05-06 14:12 | -23.91429 | -45.94377 | 17399 ft | 391 kts | 255° |
| 2026-05-06 14:12 | -23.92054 | -45.97265 | 16945 ft | 389 kts | 255° |
| 2026-05-06 14:12 | -23.92676 | -46.00139 | 16490 ft | 388 kts | 255° |
| 2026-05-06 14:13 | -23.93296 | -46.03005 | 16034 ft | 386 kts | 255° |
| 2026-05-06 14:13 | -23.93912 | -46.05856 | 15584 ft | 384 kts | 255° |
| 2026-05-06 14:13 | -23.94524 | -46.08696 | 15140 ft | 383 kts | 256° |
| 2026-05-06 14:13 | -23.95126 | -46.11483 | 14696 ft | 381 kts | 256° |
| 2026-05-06 14:14 | -23.95732 | -46.14300 | 14252 ft | 380 kts | 256° |
| 2026-05-06 14:14 | -23.96336 | -46.17106 | 13783 ft | 378 kts | 256° |
| 2026-05-06 14:14 | -23.96935 | -46.19894 | 13441 ft | 374 kts | 256° |
| 2026-05-06 14:14 | -23.97533 | -46.22676 | 13074 ft | 375 kts | 256° |
| 2026-05-06 14:15 | -23.98126 | -46.25439 | 12635 ft | 372 kts | 256° |
| 2026-05-06 14:15 | -23.98716 | -46.28191 | 12207 ft | 371 kts | 256° |
| 2026-05-06 14:15 | -23.99303 | -46.30930 | 11774 ft | 369 kts | 256° |
| 2026-05-06 14:15 | -23.99883 | -46.33642 | 11341 ft | 361 kts | 257° |
| 2026-05-06 14:16 | -24.00432 | -46.36226 | 10933 ft | 337 kts | 257° |
| 2026-05-06 14:16 | -24.00947 | -46.38642 | 10552 ft | 317 kts | 257° |
| 2026-05-06 14:16 | -24.01438 | -46.40935 | 10186 ft | 304 kts | 257° |
| 2026-05-06 14:16 | -24.01913 | -46.43166 | 9814 ft | 299 kts | 257° |
| 2026-05-06 14:17 | -24.02383 | -46.45376 | 9463 ft | 297 kts | 257° |
| 2026-05-06 14:17 | -24.02851 | -46.47576 | 9116 ft | 296 kts | 257° |
| 2026-05-06 14:17 | -24.03318 | -46.49769 | 8773 ft | 295 kts | 257° |
| 2026-05-06 14:17 | -24.03783 | -46.51956 | 8432 ft | 294 kts | 257° |
| 2026-05-06 14:18 | -24.04242 | -46.54119 | 8184 ft | 289 kts | 257° |
| 2026-05-06 14:18 | -24.04696 | -46.56256 | 8190 ft | 290 kts | 257° |
| 2026-05-06 14:18 | -24.05148 | -46.58380 | 8193 ft | 292 kts | 257° |
| 2026-05-06 14:18 | -24.05607 | -46.60549 | 8201 ft | 293 kts | 257° |
| 2026-05-06 14:19 | -24.06066 | -46.62717 | 8198 ft | 293 kts | 257° |
| 2026-05-06 14:19 | -24.06525 | -46.64888 | 8199 ft | 294 kts | 257° |
| 2026-05-06 14:19 | -24.06985 | -46.67063 | 8202 ft | 293 kts | 257° |
| 2026-05-06 14:19 | -24.07443 | -46.69232 | 8195 ft | 293 kts | 257° |
| 2026-05-06 14:20 | -24.07902 | -46.71405 | 8200 ft | 294 kts | 257° |
| 2026-05-06 14:20 | -24.08359 | -46.73580 | 8199 ft | 294 kts | 257° |
| 2026-05-06 14:20 | -24.08472 | -46.75796 | 8127 ft | 292 kts | 281° |
| 2026-05-06 14:20 | -24.07716 | -46.77836 | 8194 ft | 290 kts | 300° |
| 2026-05-06 14:21 | -24.06687 | -46.79736 | 8214 ft | 291 kts | 303° |
| 2026-05-06 14:21 | -24.05633 | -46.81626 | 8213 ft | 290 kts | 302° |
| 2026-05-06 14:21 | -24.04603 | -46.83532 | 8210 ft | 291 kts | 301° |
| 2026-05-06 14:21 | -24.03584 | -46.85440 | 8209 ft | 290 kts | 301° |
| 2026-05-06 14:22 | -24.02557 | -46.87341 | 8202 ft | 290 kts | 302° |
| 2026-05-06 14:22 | -24.01524 | -46.89244 | 8204 ft | 291 kts | 302° |
| 2026-05-06 14:22 | -24.00510 | -46.91120 | 8204 ft | 291 kts | 302° |
| 2026-05-06 14:22 | -23.99479 | -46.93027 | 8203 ft | 290 kts | 302° |
| 2026-05-06 14:23 | -23.98448 | -46.94932 | 8203 ft | 291 kts | 302° |
| 2026-05-06 14:23 | -23.97421 | -46.96829 | 8205 ft | 290 kts | 302° |
| 2026-05-06 14:23 | -23.96392 | -46.98725 | 8207 ft | 290 kts | 302° |
| 2026-05-06 14:23 | -23.95363 | -47.00623 | 8206 ft | 290 kts | 302° |
| 2026-05-06 14:24 | -23.94335 | -47.02523 | 8203 ft | 290 kts | 302° |
| 2026-05-06 14:24 | -23.93307 | -47.04419 | 8201 ft | 289 kts | 302° |
| 2026-05-06 14:24 | -23.92291 | -47.06291 | 8201 ft | 290 kts | 302° |
| 2026-05-06 14:24 | -23.91262 | -47.08185 | 8203 ft | 291 kts | 302° |
| 2026-05-06 14:25 | -23.90234 | -47.10079 | 8208 ft | 290 kts | 302° |
| 2026-05-06 14:25 | -23.89204 | -47.11975 | 8208 ft | 289 kts | 302° |
| 2026-05-06 14:25 | -23.88176 | -47.13868 | 8210 ft | 290 kts | 302° |
| 2026-05-06 14:25 | -23.87146 | -47.15763 | 8205 ft | 289 kts | 302° |
| 2026-05-06 14:26 | -23.86114 | -47.17657 | 8206 ft | 290 kts | 302° |
| 2026-05-06 14:26 | -23.85087 | -47.19546 | 8206 ft | 289 kts | 302° |
| 2026-05-06 14:26 | -23.84057 | -47.21438 | 8206 ft | 289 kts | 302° |
| 2026-05-06 14:26 | -23.83031 | -47.23324 | 8206 ft | 289 kts | 302° |
| 2026-05-06 14:27 | -23.82003 | -47.25212 | 8207 ft | 289 kts | 302° |
| 2026-05-06 14:27 | -23.80974 | -47.27100 | 8211 ft | 289 kts | 302° |
| 2026-05-06 14:27 | -23.79943 | -47.28992 | 8216 ft | 289 kts | 302° |
| 2026-05-06 14:27 | -23.78912 | -47.30883 | 8210 ft | 291 kts | 302° |
| 2026-05-06 14:28 | -23.77877 | -47.32777 | 8210 ft | 291 kts | 302° |
| 2026-05-06 14:28 | -23.76854 | -47.34652 | 8207 ft | 292 kts | 302° |
| 2026-05-06 14:28 | -23.75812 | -47.36562 | 8211 ft | 292 kts | 302° |
| 2026-05-06 14:28 | -23.74769 | -47.38471 | 8208 ft | 291 kts | 302° |
| 2026-05-06 14:29 | -23.73731 | -47.40373 | 8203 ft | 290 kts | 302° |
| 2026-05-06 14:29 | -23.72695 | -47.42265 | 8202 ft | 292 kts | 302° |
| 2026-05-06 14:29 | -23.71508 | -47.44003 | 8143 ft | 288 kts | 320° |
| 2026-05-06 14:29 | -23.69777 | -47.45037 | 8099 ft | 286 kts | 343° |
| 2026-05-06 14:30 | -23.67785 | -47.45194 | 7821 ft | 281 kts | 5° |
| 2026-05-06 14:30 | -23.65867 | -47.45024 | 7625 ft | 281 kts | 6° |
| 2026-05-06 14:30 | -23.63918 | -47.44849 | 7383 ft | 280 kts | 6° |
| 2026-05-06 14:30 | -23.61987 | -47.44692 | 7198 ft | 275 kts | 6° |
| 2026-05-06 14:31 | -23.60081 | -47.44537 | 7200 ft | 277 kts | 6° |
| 2026-05-06 14:31 | -23.58153 | -47.44376 | 7203 ft | 278 kts | 6° |
| 2026-05-06 14:31 | -23.56222 | -47.44213 | 7202 ft | 278 kts | 6° |
| 2026-05-06 14:31 | -23.54292 | -47.44050 | 7206 ft | 278 kts | 6° |
| 2026-05-06 14:32 | -23.52361 | -47.43889 | 7207 ft | 277 kts | 6° |
| 2026-05-06 14:32 | -23.50432 | -47.43729 | 7200 ft | 279 kts | 6° |
| 2026-05-06 14:32 | -23.48498 | -47.43566 | 6958 ft | 274 kts | 6° |
| 2026-05-06 14:32 | -23.46643 | -47.43411 | 6620 ft | 262 kts | 6° |
| 2026-05-06 14:33 | -23.44865 | -47.43263 | 6272 ft | 251 kts | 6° |
| 2026-05-06 14:33 | -23.43215 | -47.42914 | 5900 ft | 237 kts | 24° |
| 2026-05-06 14:33 | -23.41935 | -47.41871 | 5605 ft | 233 kts | 49° |
| 2026-05-06 14:33 | -23.41194 | -47.40288 | 5314 ft | 235 kts | 75° |
| 2026-05-06 14:34 | -23.41134 | -47.38528 | 5049 ft | 232 kts | 93° |
| 2026-05-06 14:34 | -23.41267 | -47.36792 | 4770 ft | 233 kts | 94° |
| 2026-05-06 14:34 | -23.41396 | -47.35021 | 4497 ft | 235 kts | 94° |
| 2026-05-06 14:34 | -23.41519 | -47.33321 | 4484 ft | 217 kts | 94° |
| 2026-05-06 14:35 | -23.41646 | -47.31702 | 4488 ft | 208 kts | 94° |
| 2026-05-06 14:35 | -23.41759 | -47.30237 | 4477 ft | 184 kts | 94° |
| 2026-05-06 14:35 | -23.41860 | -47.28891 | 4459 ft | 179 kts | 94° |
| 2026-05-06 14:35 | -23.41963 | -47.27510 | 4215 ft | 180 kts | 94° |
| 2026-05-06 14:36 | -23.42066 | -47.26154 | 3986 ft | 180 kts | 94° |
| 2026-05-06 14:36 | -23.42146 | -47.24912 | 3786 ft | 149 kts | 93° |
| 2026-05-06 14:36 | -23.42211 | -47.23873 | 3615 ft | 132 kts | 93° |
| 2026-05-06 14:36 | -23.42272 | -47.22903 | 3473 ft | 125 kts | 92° |
| 2026-05-06 14:37 | -23.42335 | -47.21956 | 3347 ft | 124 kts | 93° |
| 2026-05-06 14:37 | -23.42396 | -47.21010 | 3221 ft | 125 kts | 94° |
| 2026-05-06 14:37 | -23.42457 | -47.20072 | 3054 ft | 123 kts | 94° |
| 2026-05-06 14:37 | -23.42516 | -47.19147 | 2887 ft | 119 kts | 94° |
| 2026-05-06 14:38 | -23.42574 | -47.18252 | 2755 ft | 122 kts | 94° |
| 2026-05-06 14:38 | -23.42629 | -47.17324 | 2550 ft | 118 kts | 94° |
| 2026-05-06 14:38 | -23.42689 | -47.16457 | 2519 ft | 104 kts | 95° |
| 2026-05-06 14:38 | -23.42733 | -47.15780 | 2512 ft | 83 kts | 94° |
| 2026-05-06 14:39 | -23.42738 | -47.15346 | 2512 ft | 0 kts | 21° |
| 2026-05-06 14:39 | -23.42733 | -47.15388 | 2511 ft | 0 kts | 240° |
| 2026-05-06 14:39 | -23.42738 | -47.15398 | 2519 ft | 0 kts | 240° |
| 2026-05-06 14:39 | -23.42740 | -47.15401 | 2519 ft | 0 kts | 240° |
| 2026-05-06 14:40 | -23.42747 | -47.15425 | 2518 ft | 0 kts | 257° |
| 2026-05-06 14:42 | -23.42750 | -47.15473 | 2518 ft | 0 kts | 272° |
| 2026-05-06 14:43 | -23.42745 | -47.15634 | 2515 ft | 0 kts | 273° |
| 2026-05-06 14:43 | -23.42737 | -47.15774 | 2506 ft | 0 kts | 273° |
| 2026-05-06 14:43 | -23.42728 | -47.15949 | 2504 ft | 0 kts | 273° |
| 2026-05-06 14:43 | -23.42713 | -47.16131 | 2513 ft | 0 kts | 274° |
| 2026-05-06 14:44 | -23.42702 | -47.16334 | 2516 ft | 0 kts | 273° |
| 2026-05-06 14:44 | -23.42692 | -47.16546 | 2521 ft | 0 kts | 273° |
| 2026-05-06 14:44 | -23.42675 | -47.16725 | 2529 ft | 0 kts | 275° |
| 2026-05-06 14:45 | -23.42649 | -47.17118 | 2542 ft | 0 kts | 274° |
| 2026-05-06 14:45 | -23.42635 | -47.17342 | 2547 ft | 0 kts | 274° |
| 2026-05-06 14:45 | -23.42626 | -47.17476 | 2550 ft | 0 kts | 274° |
| 2026-05-06 14:45 | -23.42635 | -47.17653 | 2550 ft | 0 kts | 229° |
| 2026-05-06 14:46 | -23.42758 | -47.17663 | 2544 ft | 0 kts | 178° |
| 2026-05-06 14:46 | -23.42828 | -47.17639 | 2544 ft | 0 kts | 185° |
| 2026-05-06 14:46 | -23.42854 | -47.17641 | 2544 ft | 0 kts | 183° |